Patrick AFB, Florida
Current Conditions -  °F | °C
As of 1:58 PM on Friday 28 Nov 2014 (Local Time) from KCOF Reporting Station
Clear Clear  
Wind Chill: 62°   Ceiling: Unl
Heat Index: 62°   Visibility: 10mi
Dew Point: 46°   Wind: 14mph
Humidity: 55%   Direction: 340°NNW
Pressure: 30.24"   Gusts: NA
Location:  28.22°N, 80.61°W
Report Text: KCOF 281858Z AUTO 34012KT 10SM CLR 17/08 A3024 RMK AO2 SLP245 T01680078
Loading
Personal Weather Stations






























Interactive Weather Map New forecast layout! Learn more

10-Day Weather Forecast

Advertisements
Track Severe Weather on mobile